createdAt,value
2022-08-07T00:00:30.796Z,3.75
2022-08-07T00:02:57.512Z,3.28
2022-08-07T00:05:25.468Z,4.45
2022-08-07T00:07:59.697Z,3.38
2022-08-07T00:10:30.005Z,4.55
2022-08-07T00:13:02.280Z,4.32
2022-08-07T00:15:46.174Z,4.40
2022-08-07T00:18:19.282Z,5.53
2022-08-07T00:20:47.764Z,6.35
2022-08-07T00:23:14.427Z,4.53
2022-08-07T00:25:41.498Z,4.63
2022-08-07T00:28:08.457Z,7.65
2022-08-07T00:30:37.406Z,5.20
2022-08-07T00:33:04.142Z,5.15
2022-08-07T00:35:35.298Z,4.00
2022-08-07T00:38:03.474Z,5.82
2022-08-07T00:40:39.775Z,5.70
2022-08-07T00:43:09.679Z,4.45
2022-08-07T00:45:38.481Z,5.97
2022-08-07T00:48:08.783Z,5.13
2022-08-07T00:50:46.630Z,5.65
2022-08-07T00:53:20.110Z,6.38
2022-08-07T00:56:02.753Z,4.85
2022-08-07T00:58:31.306Z,6.10
2022-08-07T01:00:58.722Z,6.32
2022-08-07T01:03:55.572Z,4.60
2022-08-07T01:06:16.203Z,4.82
2022-08-07T01:08:51.570Z,6.97
2022-08-07T01:12:09.225Z,6.38
2022-08-07T01:14:10.675Z,6.68
2022-08-07T01:16:37.378Z,5.78
2022-08-07T01:19:05.031Z,5.68
2022-08-07T01:21:45.680Z,7.57
2022-08-07T01:24:13.294Z,6.55
2022-08-07T01:26:40.028Z,8.80
2022-08-07T01:29:07.171Z,6.40
2022-08-07T01:31:41.639Z,8.60
2022-08-07T01:34:09.014Z,6.88
2022-08-07T01:36:36.461Z,7.35
2022-08-07T01:39:09.933Z,7.82
2022-08-07T01:41:37.601Z,8.85
2022-08-07T01:44:05.363Z,8.38
2022-08-07T01:46:32.063Z,9.52
2022-08-07T01:48:59.823Z,6.35
2022-08-07T01:52:01.635Z,8.55
2022-08-07T01:54:22.155Z,9.38
2022-08-07T01:57:20.685Z,8.80
2022-08-07T02:00:13.319Z,7.47
2022-08-07T02:03:19.381Z,9.23
2022-08-07T02:05:43.294Z,6.97
2022-08-07T02:08:18.935Z,9.35
2022-08-07T02:10:54.896Z,10.02
2022-08-07T02:13:23.328Z,7.75
2022-08-07T02:16:11.835Z,8.50
2022-08-07T02:18:47.106Z,8.43
2022-08-07T02:21:16.391Z,6.32
2022-08-07T02:23:43.479Z,7.55
2022-08-07T02:26:33.865Z,6.55
2022-08-07T02:28:58.426Z,7.03
2022-08-07T02:31:28.682Z,6.45
2022-08-07T02:34:01.571Z,5.93
2022-08-07T02:36:33.122Z,6.25
2022-08-07T02:39:01.843Z,8.70
2022-08-07T02:41:37.101Z,9.80
2022-08-07T02:44:06.303Z,6.78
2022-08-07T02:46:33.566Z,8.93
2022-08-07T02:49:04.352Z,8.45
2022-08-07T02:51:49.908Z,7.95
2022-08-07T02:54:19.185Z,7.85
2022-08-07T02:56:46.604Z,7.82
2022-08-07T02:59:15.042Z,7.50
2022-08-07T03:01:41.837Z,6.88
2022-08-07T03:04:14.336Z,6.32
2022-08-07T03:06:46.042Z,10.65
2022-08-07T03:09:14.774Z,9.15
2022-08-07T03:12:04.643Z,6.78
2022-08-07T03:14:31.924Z,7.18
2022-08-07T03:16:58.631Z,13.65
2022-08-07T03:19:29.074Z,7.40
2022-08-07T03:22:04.708Z,8.27
2022-08-07T03:24:31.654Z,8.38
2022-08-07T03:27:01.931Z,9.27
2022-08-07T03:29:36.645Z,8.32
2022-08-07T03:32:06.747Z,7.93
2022-08-07T03:34:33.706Z,7.00
2022-08-07T03:37:11.996Z,9.25
2022-08-07T03:39:46.571Z,8.60
2022-08-07T03:42:26.078Z,7.80
2022-08-07T03:44:57.786Z,12.38
2022-08-07T03:47:28.014Z,11.88
2022-08-07T03:49:57.164Z,11.30
2022-08-07T03:52:26.488Z,11.82
2022-08-07T03:55:06.834Z,8.50
2022-08-07T03:58:34.611Z,10.73
2022-08-07T04:00:21.269Z,11.13
2022-08-07T04:02:58.439Z,8.88
2022-08-07T04:05:39.229Z,9.82
2022-08-07T04:08:11.020Z,12.77
2022-08-07T04:10:38.986Z,10.10
2022-08-07T04:13:05.720Z,8.63
2022-08-07T04:15:32.463Z,8.45
2022-08-07T04:18:31.824Z,9.43
2022-08-07T04:20:54.736Z,10.48
2022-08-07T04:23:21.953Z,9.07
2022-08-07T04:25:49.086Z,10.60
2022-08-07T04:28:16.005Z,10.18
2022-08-07T04:30:55.507Z,8.43
2022-08-07T04:33:37.069Z,12.25
2022-08-07T04:36:06.612Z,10.13
2022-08-07T04:38:33.461Z,8.93
2022-08-07T04:41:00.736Z,8.75
2022-08-07T04:44:14.723Z,8.52
2022-08-07T04:47:04.591Z,8.70
2022-08-07T04:49:57.830Z,8.00
2022-08-07T04:53:04.282Z,8.75
2022-08-07T04:58:09.904Z,11.35
2022-08-07T05:01:45.175Z,9.70
2022-08-07T05:04:18.266Z,11.23
2022-08-07T05:07:19.534Z,10.48
2022-08-07T05:10:36.404Z,9.65
2022-08-07T05:15:51.533Z,10.43
2022-08-07T05:18:23.103Z,8.57
2022-08-07T05:20:53.622Z,10.50
2022-08-07T05:23:29.096Z,10.00
2022-08-07T05:26:13.563Z,9.55
2022-08-07T05:28:48.653Z,9.93
2022-08-07T05:31:21.737Z,9.27
2022-08-07T05:34:01.502Z,9.38
2022-08-07T05:36:32.291Z,11.20
2022-08-07T05:40:07.007Z,10.77
2022-08-07T05:42:01.862Z,8.85
2022-08-07T05:44:30.861Z,10.68
2022-08-07T05:46:57.582Z,11.55
2022-08-07T05:52:07.563Z,10.30
2022-08-07T05:54:44.504Z,10.77
2022-08-07T05:57:22.455Z,10.85
2022-08-07T05:59:56.182Z,9.88
2022-08-07T06:02:28.619Z,9.00
2022-08-07T06:04:57.131Z,8.82
2022-08-07T06:08:14.333Z,11.23
2022-08-07T06:10:11.318Z,9.70
2022-08-07T06:12:42.351Z,8.88
2022-08-07T06:15:10.198Z,10.25
2022-08-07T06:17:50.697Z,10.38
2022-08-07T06:20:49.372Z,9.10
2022-08-07T06:23:45.982Z,8.70
2022-08-07T06:25:59.020Z,8.95
2022-08-07T06:28:28.155Z,11.48
2022-08-07T06:33:22.686Z,8.32
2022-08-07T06:36:12.246Z,10.07
2022-08-07T06:38:36.366Z,8.20
2022-08-07T06:41:03.607Z,9.32
2022-08-07T06:43:39.549Z,9.35
2022-08-07T06:46:14.587Z,8.48
2022-08-07T06:48:50.319Z,8.38
2022-08-07T06:51:31.395Z,8.18
2022-08-07T06:55:28.350Z,10.80
2022-08-07T06:56:49.307Z,10.63
2022-08-07T07:00:11.806Z,11.25
2022-08-07T07:02:49.201Z,11.43
2022-08-07T07:06:05.784Z,9.80
2022-08-07T07:08:07.305Z,9.73
2022-08-07T07:10:38.176Z,9.45
2022-08-07T07:13:55.389Z,10.48
2022-08-07T07:16:27.582Z,10.93
2022-08-07T07:18:59.756Z,8.35
2022-08-07T07:22:03.958Z,9.90
2022-08-07T07:24:23.626Z,9.98
2022-08-07T07:26:54.895Z,9.75
2022-08-07T07:29:57.298Z,9.55
2022-08-07T07:32:23.590Z,7.00
2022-08-07T07:34:59.536Z,10.07
2022-08-07T07:40:16.981Z,7.00
2022-08-07T07:42:51.048Z,7.15
2022-08-07T07:46:38.153Z,6.15
2022-08-07T07:48:36.152Z,6.72
2022-08-07T07:51:07.739Z,6.85
2022-08-07T07:53:51.705Z,5.93
2022-08-07T07:56:29.996Z,6.88
2022-08-07T07:58:58.764Z,5.75
2022-08-07T08:02:03.857Z,5.45
2022-08-07T08:04:15.027Z,6.45
2022-08-07T08:06:52.202Z,5.45
2022-08-07T08:09:22.958Z,5.35
2022-08-07T08:12:02.157Z,4.18
2022-08-07T08:14:36.392Z,4.03
2022-08-07T08:17:56.499Z,3.58
2022-08-07T08:20:16.994Z,5.22
2022-08-07T08:22:54.260Z,4.32
2022-08-07T08:25:27.093Z,5.45
2022-08-07T08:28:11.881Z,5.20
2022-08-07T08:30:51.395Z,4.03
2022-08-07T08:33:23.229Z,3.15
2022-08-07T08:35:50.664Z,3.72
2022-08-07T08:38:32.488Z,3.80
2022-08-07T08:41:24.406Z,3.63
2022-08-07T08:44:16.854Z,8.75
2022-08-07T08:47:52.871Z,7.10
2022-08-07T08:50:39.118Z,3.85
2022-08-07T08:53:19.147Z,3.50
2022-08-07T08:55:54.890Z,4.30
2022-08-07T08:59:06.410Z,4.30
2022-08-07T09:02:04.139Z,3.25
2022-08-07T09:04:47.025Z,3.78
2022-08-07T09:07:34.222Z,4.43
2022-08-07T09:10:29.417Z,3.60
2022-08-07T09:13:15.337Z,4.53
2022-08-07T09:16:23.408Z,3.45
2022-08-07T09:18:40.565Z,4.93
2022-08-07T09:21:33.742Z,3.47
2022-08-07T09:24:55.385Z,5.05
2022-08-07T09:27:59.425Z,4.25
2022-08-07T09:30:31.995Z,3.75
2022-08-07T09:33:41.309Z,3.67
2022-08-07T09:36:17.480Z,4.85
2022-08-07T09:39:11.510Z,3.28
2022-08-07T09:42:17.046Z,3.55
2022-08-07T09:46:28.707Z,4.55
2022-08-07T09:48:29.676Z,2.47
2022-08-07T09:51:00.360Z,4.28
2022-08-07T09:53:40.935Z,3.05
2022-08-07T09:56:53.150Z,3.08
2022-08-07T10:00:00.316Z,2.88
2022-08-07T10:02:55.261Z,5.03
2022-08-07T10:06:00.351Z,4.57
2022-08-07T10:09:03.776Z,4.07
2022-08-07T10:12:04.733Z,2.67
2022-08-07T10:15:15.444Z,3.92
2022-08-07T10:18:26.666Z,4.15
2022-08-07T10:22:14.871Z,2.78
2022-08-07T10:24:33.367Z,2.85
2022-08-07T10:27:46.576Z,5.07
2022-08-07T10:30:19.098Z,4.28
2022-08-07T10:33:15.313Z,5.43
2022-08-07T10:36:29.928Z,4.78
2022-08-07T10:39:21.725Z,3.45
2022-08-07T10:42:20.860Z,3.70
2022-08-07T10:44:57.122Z,3.65
2022-08-07T10:47:52.869Z,5.32
2022-08-07T10:50:35.255Z,4.03
2022-08-07T10:53:21.512Z,3.80
2022-08-07T10:56:20.668Z,4.28
2022-08-07T10:59:00.218Z,5.88
2022-08-07T11:01:51.832Z,4.22
2022-08-07T11:04:37.794Z,3.53
2022-08-07T11:07:57.006Z,2.65
2022-08-07T11:10:11.740Z,3.63
2022-08-07T11:12:49.054Z,2.20
2022-08-07T11:15:21.139Z,3.05
2022-08-07T11:18:20.480Z,3.03
2022-08-07T11:20:57.417Z,4.20
2022-08-07T11:24:01.544Z,2.88
2022-08-07T11:27:00.455Z,3.50
2022-08-07T11:30:10.080Z,2.55
2022-08-07T11:32:44.260Z,3.20
2022-08-07T11:35:25.287Z,2.25
2022-08-07T11:38:12.614Z,1.90
2022-08-07T11:41:04.210Z,1.80
2022-08-07T11:44:10.931Z,2.45
2022-08-07T11:46:51.180Z,1.90
2022-08-07T11:49:50.625Z,3.22
2022-08-07T11:52:35.755Z,3.15
2022-08-07T11:56:25.235Z,3.00
2022-08-07T11:58:33.564Z,3.00
2022-08-07T12:01:06.748Z,2.90
2022-08-07T12:03:45.340Z,3.95
2022-08-07T12:06:37.603Z,2.70
2022-08-07T12:09:23.217Z,2.78
2022-08-07T12:12:11.570Z,2.72
2022-08-07T12:14:55.613Z,3.33
2022-08-07T12:17:34.140Z,2.58
2022-08-07T12:20:30.398Z,2.60
2022-08-07T12:24:04.871Z,3.10
2022-08-07T12:26:30.104Z,3.40
2022-08-07T12:29:38.358Z,2.88
2022-08-07T12:32:13.133Z,2.75
2022-08-07T12:34:40.791Z,4.20
2022-08-07T12:37:16.952Z,2.85
2022-08-07T12:39:51.515Z,2.33
2022-08-07T12:42:27.271Z,2.22
2022-08-07T12:44:56.849Z,2.28
2022-08-07T12:47:41.038Z,2.08
2022-08-07T12:50:39.891Z,2.55
2022-08-07T12:53:27.647Z,3.92
2022-08-07T12:56:17.078Z,2.50
2022-08-07T12:58:46.775Z,2.78
2022-08-07T13:01:57.850Z,2.17
2022-08-07T13:05:01.866Z,3.28
2022-08-07T13:08:12.730Z,1.90
2022-08-07T13:11:01.434Z,1.55
2022-08-07T13:13:51.968Z,1.80
2022-08-07T13:16:39.250Z,1.52
2022-08-07T13:19:35.011Z,1.95
2022-08-07T13:22:27.760Z,1.25
2022-08-07T13:25:00.063Z,1.88
2022-08-07T13:28:12.743Z,2.20
2022-08-07T13:30:40.162Z,1.88
2022-08-07T13:34:31.646Z,2.22
2022-08-07T13:36:21.903Z,1.98
2022-08-07T13:39:13.013Z,4.47
2022-08-07T13:41:56.634Z,2.47
2022-08-07T13:46:57.551Z,2.05
2022-08-07T13:50:34.721Z,1.52
2022-08-07T13:52:32.384Z,2.55
2022-08-07T13:55:00.590Z,2.17
2022-08-07T13:57:37.601Z,2.70
2022-08-07T14:00:26.270Z,1.98
2022-08-07T14:02:55.495Z,4.07
2022-08-07T14:05:22.529Z,2.42
2022-08-07T14:08:00.813Z,3.03
2022-08-07T14:10:34.471Z,4.10
2022-08-07T14:13:14.517Z,5.65
2022-08-07T14:15:44.282Z,3.90
2022-08-07T14:18:27.832Z,3.85
2022-08-07T14:22:02.933Z,3.42
2022-08-07T14:24:42.108Z,4.63
2022-08-07T14:28:12.281Z,3.55
2022-08-07T14:30:32.778Z,3.80
2022-08-07T14:33:00.658Z,2.53
2022-08-07T14:35:43.288Z,3.88
2022-08-07T14:38:24.766Z,2.67
2022-08-07T14:41:14.593Z,2.80
2022-08-07T14:52:11.646Z,5.28
2022-08-07T14:54:49.221Z,3.17
2022-08-07T14:57:21.264Z,2.95
2022-08-07T15:00:04.675Z,2.25
2022-08-07T15:02:34.627Z,4.05
2022-08-07T15:05:02.162Z,3.80
2022-08-07T15:10:20.127Z,2.38
2022-08-07T15:13:05.932Z,4.65
2022-08-07T15:15:39.097Z,2.95
2022-08-07T15:21:58.772Z,2.20
2022-08-07T15:25:15.513Z,3.95
2022-08-07T15:27:26.716Z,3.78
2022-08-07T15:30:09.206Z,3.35
2022-08-07T15:36:01.454Z,8.52
2022-08-07T15:41:23.883Z,4.22
2022-08-07T15:44:10.396Z,3.67
2022-08-07T15:46:51.606Z,4.35
2022-08-07T15:49:19.210Z,5.20
2022-08-07T15:54:31.461Z,7.70
2022-08-07T15:57:04.771Z,4.30
2022-08-07T15:59:39.543Z,4.30
2022-08-07T16:02:22.111Z,5.30
2022-08-07T16:05:02.022Z,4.45
2022-08-07T16:08:33.706Z,6.10
2022-08-07T16:10:24.552Z,5.43
2022-08-07T16:13:59.183Z,5.45
2022-08-07T16:16:48.909Z,2.58
2022-08-07T16:19:21.185Z,7.13
2022-08-07T16:22:36.512Z,6.35
2022-08-07T16:25:54.892Z,13.52
2022-08-07T16:30:06.345Z,5.07
2022-08-07T16:31:58.164Z,5.85
2022-08-07T16:34:48.674Z,5.78
2022-08-07T16:38:03.357Z,6.18
2022-08-07T16:40:34.273Z,6.43
2022-08-07T16:43:02.547Z,12.60
2022-08-07T16:46:40.442Z,3.83
2022-08-07T16:50:27.342Z,5.95
2022-08-07T16:52:51.182Z,2.97
2022-08-07T16:55:47.289Z,4.07
2022-08-07T16:58:23.228Z,4.00
2022-08-07T17:01:17.126Z,3.75
2022-08-07T17:04:24.450Z,4.40
2022-08-07T17:07:18.368Z,4.00
2022-08-07T17:10:07.654Z,4.88
2022-08-07T17:12:47.130Z,4.80
2022-08-07T17:15:43.719Z,3.10
2022-08-07T17:18:25.855Z,6.35
2022-08-07T17:20:54.062Z,3.25
2022-08-07T17:23:40.571Z,4.15
2022-08-07T17:26:23.148Z,2.55
2022-08-07T17:28:59.801Z,2.80
2022-08-07T17:31:44.454Z,3.17
2022-08-07T17:34:40.939Z,4.22
2022-08-07T17:38:05.758Z,3.47
2022-08-07T17:40:40.223Z,9.57
2022-08-07T17:43:18.927Z,5.05
2022-08-07T17:45:56.579Z,6.68
2022-08-07T17:48:31.224Z,5.90
2022-08-07T17:51:21.479Z,4.22
2022-08-07T17:54:06.264Z,4.95
2022-08-07T17:57:18.805Z,4.30
2022-08-07T17:59:50.502Z,5.90
2022-08-07T18:02:30.465Z,5.68
2022-08-07T18:05:20.856Z,3.65
2022-08-07T18:08:00.236Z,3.72
2022-08-07T18:12:16.226Z,4.80
2022-08-07T18:13:55.953Z,5.32
2022-08-07T18:16:36.641Z,6.50
2022-08-07T18:21:11.944Z,5.85
2022-08-07T18:22:47.211Z,3.33
2022-08-07T18:25:40.204Z,4.75
2022-08-07T18:28:34.055Z,5.35
2022-08-07T18:31:10.948Z,5.03
2022-08-07T18:33:56.035Z,4.20
2022-08-07T18:36:53.984Z,3.22
2022-08-07T18:40:08.958Z,8.15
2022-08-07T18:42:44.698Z,6.60
2022-08-07T18:45:44.993Z,7.32
2022-08-07T18:48:05.551Z,5.97
2022-08-07T18:50:47.396Z,6.45
2022-08-07T18:56:31.570Z,5.10
2022-08-07T18:59:47.782Z,5.18
2022-08-07T19:02:34.465Z,5.13
2022-08-07T19:05:20.465Z,6.05
2022-08-07T19:07:58.633Z,5.20
2022-08-07T19:10:31.356Z,6.32
2022-08-07T19:13:10.390Z,7.20
2022-08-07T19:16:05.105Z,4.70
2022-08-07T19:18:51.945Z,4.55
2022-08-07T19:21:44.057Z,5.55
2022-08-07T19:24:43.557Z,8.05
2022-08-07T19:28:29.620Z,6.53
2022-08-07T19:31:02.151Z,7.60
2022-08-07T19:32:52.906Z,5.90
2022-08-07T19:35:26.745Z,8.00
2022-08-07T19:37:58.497Z,7.35
2022-08-07T19:40:31.474Z,4.53
2022-08-07T19:43:01.092Z,7.25
2022-08-07T19:46:04.917Z,6.00
2022-08-07T19:48:18.785Z,7.03
2022-08-07T19:50:53.561Z,7.28
2022-08-07T19:54:34.958Z,6.97
2022-08-07T19:56:15.072Z,6.22
2022-08-07T19:58:56.963Z,6.03
2022-08-07T20:01:23.650Z,7.95
2022-08-07T20:04:11.306Z,10.48
2022-08-07T20:06:57.005Z,6.78
2022-08-07T20:10:34.091Z,8.18
2022-08-07T20:12:31.916Z,7.55
2022-08-07T20:15:00.648Z,6.05
2022-08-07T20:17:30.840Z,6.97
2022-08-07T20:19:58.852Z,6.82
2022-08-07T20:22:29.183Z,5.75
2022-08-07T20:25:03.500Z,8.65
2022-08-07T20:27:47.741Z,9.25
2022-08-07T20:30:16.112Z,9.70
2022-08-07T20:32:49.074Z,6.07
2022-08-07T20:35:26.039Z,6.38
2022-08-07T20:37:58.877Z,8.73
2022-08-07T20:40:32.909Z,10.10
2022-08-07T20:43:03.107Z,5.45
2022-08-07T20:45:33.751Z,9.82
2022-08-07T20:48:28.650Z,8.05
2022-08-07T20:50:57.635Z,7.13
2022-08-07T20:53:26.000Z,7.90
2022-08-07T20:56:11.178Z,6.22
2022-08-07T20:58:40.312Z,6.82
2022-08-07T21:01:08.547Z,7.75
2022-08-07T21:04:18.851Z,13.25
2022-08-07T21:06:37.958Z,8.00
2022-08-07T21:09:14.088Z,7.25
2022-08-07T21:11:50.230Z,8.88
2022-08-07T21:14:33.134Z,7.13
2022-08-07T21:18:02.603Z,5.47
2022-08-07T21:20:04.685Z,5.95
2022-08-07T21:22:39.231Z,9.63
2022-08-07T21:25:29.157Z,9.73
2022-08-07T21:28:13.477Z,10.32
2022-08-07T21:30:49.788Z,8.02
2022-08-07T21:33:46.556Z,6.15
2022-08-07T21:36:37.344Z,11.30
2022-08-07T21:39:51.598Z,9.38
2022-08-07T21:42:46.626Z,8.18
2022-08-07T21:46:10.584Z,6.38
2022-08-07T21:48:27.765Z,10.27
2022-08-07T21:51:19.973Z,8.27
2022-08-07T21:53:53.685Z,7.85
2022-08-07T21:56:49.008Z,7.80
2022-08-07T22:00:05.290Z,9.68
2022-08-07T22:02:34.380Z,8.05
2022-08-07T22:05:01.437Z,11.85
2022-08-07T22:07:48.643Z,11.65
2022-08-07T22:10:24.653Z,10.70
2022-08-07T22:13:03.434Z,8.57
2022-08-07T22:16:45.677Z,7.88
2022-08-07T22:18:40.784Z,9.13
2022-08-07T22:22:05.198Z,13.52
2022-08-07T22:24:47.151Z,8.18
2022-08-07T22:27:20.409Z,8.75
2022-08-07T22:30:12.354Z,7.47
2022-08-07T22:33:06.930Z,9.75
2022-08-07T22:35:40.814Z,9.48
2022-08-07T22:38:14.257Z,15.38
2022-08-07T22:41:03.135Z,10.38
2022-08-07T22:43:36.812Z,9.65
2022-08-07T22:46:46.706Z,10.40
2022-08-07T22:49:16.477Z,10.60
2022-08-07T22:51:55.181Z,9.98
2022-08-07T22:54:33.569Z,12.95
2022-08-07T22:57:09.577Z,10.63
2022-08-07T22:59:50.218Z,9.73
2022-08-07T23:02:59.392Z,10.20
2022-08-07T23:06:14.832Z,11.35
2022-08-07T23:10:01.750Z,10.57
2022-08-07T23:12:09.386Z,7.43
2022-08-07T23:14:48.776Z,10.65
2022-08-07T23:17:52.192Z,10.50
2022-08-07T23:20:53.391Z,8.30
2022-08-07T23:24:07.067Z,9.75
2022-08-07T23:26:25.317Z,11.60
2022-08-07T23:29:44.054Z,12.10
2022-08-07T23:34:21.525Z,11.38
2022-08-07T23:35:25.791Z,11.10
2022-08-07T23:38:19.116Z,12.75
2022-08-07T23:41:47.574Z,9.02
2022-08-07T23:44:41.778Z,9.02
2022-08-07T23:47:46.769Z,12.35
2022-08-07T23:50:33.564Z,11.07
2022-08-07T23:53:08.694Z,11.38
2022-08-07T23:55:53.635Z,10.45
2022-08-07T23:58:38.376Z,12.73
